sensor_id;sensor_type;location;lat;lon;timestamp;temperature;humidity
34406;DHT22;20658;45.630;8.886;2023-02-08T00:02:26;-0.10;75.80
34406;DHT22;20658;45.630;8.886;2023-02-08T00:05:00;-0.20;75.50
34406;DHT22;20658;45.630;8.886;2023-02-08T00:07:33;-0.20;75.50
34406;DHT22;20658;45.630;8.886;2023-02-08T00:10:06;-0.10;75.80
34406;DHT22;20658;45.630;8.886;2023-02-08T00:12:41;-0.20;75.90
34406;DHT22;20658;45.630;8.886;2023-02-08T00:15:11;-0.20;75.80
34406;DHT22;20658;45.630;8.886;2023-02-08T00:17:44;-0.20;76.50
34406;DHT22;20658;45.630;8.886;2023-02-08T00:20:18;-0.20;77.00
34406;DHT22;20658;45.630;8.886;2023-02-08T00:22:51;-0.20;77.30
34406;DHT22;20658;45.630;8.886;2023-02-08T00:25:24;-0.20;77.40
34406;DHT22;20658;45.630;8.886;2023-02-08T00:27:58;-0.30;77.30
34406;DHT22;20658;45.630;8.886;2023-02-08T00:30:32;0.20;77.70
34406;DHT22;20658;45.630;8.886;2023-02-08T00:33:07;-0.30;77.90
34406;DHT22;20658;45.630;8.886;2023-02-08T00:35:40;0.00;78.00
34406;DHT22;20658;45.630;8.886;2023-02-08T00:38:14;-0.40;77.90
34406;DHT22;20658;45.630;8.886;2023-02-08T00:40:47;0.10;78.70
34406;DHT22;20658;45.630;8.886;2023-02-08T00:43:20;-0.40;78.50
34406;DHT22;20658;45.630;8.886;2023-02-08T00:45:56;-0.50;78.50
34406;DHT22;20658;45.630;8.886;2023-02-08T00:48:30;-0.50;78.50
34406;DHT22;20658;45.630;8.886;2023-02-08T00:51:06;-0.50;78.60
34406;DHT22;20658;45.630;8.886;2023-02-08T00:53:44;-0.50;78.50
34406;DHT22;20658;45.630;8.886;2023-02-08T00:56:18;-0.50;78.50
34406;DHT22;20658;45.630;8.886;2023-02-08T00:58:51;-0.60;78.80
34406;DHT22;20658;45.630;8.886;2023-02-08T01:01:25;0.00;79.50
34406;DHT22;20658;45.630;8.886;2023-02-08T01:04:00;-0.50;78.90
34406;DHT22;20658;45.630;8.886;2023-02-08T01:06:34;-0.60;78.70
34406;DHT22;20658;45.630;8.886;2023-02-08T01:09:07;-0.70;78.90
34406;DHT22;20658;45.630;8.886;2023-02-08T01:11:40;-0.20;79.40
34406;DHT22;20658;45.630;8.886;2023-02-08T01:14:14;-0.70;79.20
34406;DHT22;20658;45.630;8.886;2023-02-08T01:16:48;-0.80;79.30
34406;DHT22;20658;45.630;8.886;2023-02-08T01:19:22;-0.80;79.30
34406;DHT22;20658;45.630;8.886;2023-02-08T01:21:56;-0.60;79.60
34406;DHT22;20658;45.630;8.886;2023-02-08T01:24:31;-0.80;79.80
34406;DHT22;20658;45.630;8.886;2023-02-08T01:27:05;-0.90;80.00
34406;DHT22;20658;45.630;8.886;2023-02-08T01:29:38;-0.90;80.10
34406;DHT22;20658;45.630;8.886;2023-02-08T01:32:13;-0.80;80.50
34406;DHT22;20658;45.630;8.886;2023-02-08T01:34:46;-0.90;80.60
34406;DHT22;20658;45.630;8.886;2023-02-08T01:37:19;-0.90;80.80
34406;DHT22;20658;45.630;8.886;2023-02-08T01:39:53;-0.70;81.20
34406;DHT22;20658;45.630;8.886;2023-02-08T01:42:26;-0.90;81.20
34406;DHT22;20658;45.630;8.886;2023-02-08T01:45:20;-1.00;81.20
34406;DHT22;20658;45.630;8.886;2023-02-08T01:48:03;-1.00;81.30
34406;DHT22;20658;45.630;8.886;2023-02-08T01:50:43;-1.10;81.70
34406;DHT22;20658;45.630;8.886;2023-02-08T01:53:23;-1.10;81.70
34406;DHT22;20658;45.630;8.886;2023-02-08T01:56:00;-1.20;81.70
34406;DHT22;20658;45.630;8.886;2023-02-08T01:58:38;-1.10;82.10
34406;DHT22;20658;45.630;8.886;2023-02-08T02:01:15;-1.10;81.90
34406;DHT22;20658;45.630;8.886;2023-02-08T02:03:50;-0.80;82.40
34406;DHT22;20658;45.630;8.886;2023-02-08T02:06:27;-1.20;82.30
34406;DHT22;20658;45.630;8.886;2023-02-08T02:09:09;-1.20;82.10
34406;DHT22;20658;45.630;8.886;2023-02-08T02:11:45;-1.20;82.50
34406;DHT22;20658;45.630;8.886;2023-02-08T02:14:18;-1.30;82.90
34406;DHT22;20658;45.630;8.886;2023-02-08T02:16:52;-1.30;82.80
34406;DHT22;20658;45.630;8.886;2023-02-08T02:19:32;-1.30;83.00
34406;DHT22;20658;45.630;8.886;2023-02-08T02:22:23;-1.30;83.10
34406;DHT22;20658;45.630;8.886;2023-02-08T02:25:44;-1.30;83.50
34406;DHT22;20658;45.630;8.886;2023-02-08T02:28:47;-1.40;83.60
34406;DHT22;20658;45.630;8.886;2023-02-08T02:32:03;-1.40;83.80
34406;DHT22;20658;45.630;8.886;2023-02-08T02:34:45;-1.40;83.70
34406;DHT22;20658;45.630;8.886;2023-02-08T02:37:32;-1.00;83.90
34406;DHT22;20658;45.630;8.886;2023-02-08T02:40:20;-1.50;83.60
34406;DHT22;20658;45.630;8.886;2023-02-08T02:43:04;-1.30;84.20
34406;DHT22;20658;45.630;8.886;2023-02-08T02:46:04;-1.50;84.40
34406;DHT22;20658;45.630;8.886;2023-02-08T02:48:46;-1.10;84.70
34406;DHT22;20658;45.630;8.886;2023-02-08T02:51:26;-1.50;84.90
34406;DHT22;20658;45.630;8.886;2023-02-08T02:54:06;-1.60;84.70
34406;DHT22;20658;45.630;8.886;2023-02-08T02:56:44;-1.60;85.10
34406;DHT22;20658;45.630;8.886;2023-02-08T02:59:21;-1.40;85.30
34406;DHT22;20658;45.630;8.886;2023-02-08T03:01:56;-1.60;85.30
34406;DHT22;20658;45.630;8.886;2023-02-08T03:04:52;-1.20;85.60
34406;DHT22;20658;45.630;8.886;2023-02-08T03:07:57;-1.60;85.30
34406;DHT22;20658;45.630;8.886;2023-02-08T03:10:46;-1.60;85.70
34406;DHT22;20658;45.630;8.886;2023-02-08T03:13:36;-1.60;85.80
34406;DHT22;20658;45.630;8.886;2023-02-08T03:16:25;-1.40;86.00
34406;DHT22;20658;45.630;8.886;2023-02-08T03:19:07;-1.70;86.00
34406;DHT22;20658;45.630;8.886;2023-02-08T03:21:52;-1.70;86.30
34406;DHT22;20658;45.630;8.886;2023-02-08T03:24:32;-1.70;86.50
34406;DHT22;20658;45.630;8.886;2023-02-08T03:27:17;-1.00;87.00
34406;DHT22;20658;45.630;8.886;2023-02-08T03:29:58;-1.70;86.50
34406;DHT22;20658;45.630;8.886;2023-02-08T03:32:39;-1.70;86.60
34406;DHT22;20658;45.630;8.886;2023-02-08T03:35:18;-1.80;86.80
34406;DHT22;20658;45.630;8.886;2023-02-08T03:37:58;-1.70;87.00
34406;DHT22;20658;45.630;8.886;2023-02-08T03:40:35;-1.80;86.60
34406;DHT22;20658;45.630;8.886;2023-02-08T03:43:13;-1.80;86.60
34406;DHT22;20658;45.630;8.886;2023-02-08T03:45:51;-1.80;86.80
34406;DHT22;20658;45.630;8.886;2023-02-08T03:48:28;-1.50;87.10
34406;DHT22;20658;45.630;8.886;2023-02-08T03:51:04;-1.90;86.90
34406;DHT22;20658;45.630;8.886;2023-02-08T03:53:40;-1.90;86.90
34406;DHT22;20658;45.630;8.886;2023-02-08T03:56:19;-1.90;87.00
34406;DHT22;20658;45.630;8.886;2023-02-08T03:58:59;-1.60;87.20
34406;DHT22;20658;45.630;8.886;2023-02-08T04:01:39;-1.90;87.10
34406;DHT22;20658;45.630;8.886;2023-02-08T04:04:15;-1.80;87.50
34406;DHT22;20658;45.630;8.886;2023-02-08T04:06:50;-1.80;87.20
34406;DHT22;20658;45.630;8.886;2023-02-08T04:09:25;-1.80;87.20
34406;DHT22;20658;45.630;8.886;2023-02-08T04:11:58;-1.90;87.40
34406;DHT22;20658;45.630;8.886;2023-02-08T04:14:32;-1.90;87.60
34406;DHT22;20658;45.630;8.886;2023-02-08T04:17:05;-1.90;87.50
34406;DHT22;20658;45.630;8.886;2023-02-08T04:19:38;-1.90;87.70
34406;DHT22;20658;45.630;8.886;2023-02-08T04:22:12;-1.00;88.10
34406;DHT22;20658;45.630;8.886;2023-02-08T04:24:46;-1.90;87.70
34406;DHT22;20658;45.630;8.886;2023-02-08T04:27:20;-2.00;87.80
34406;DHT22;20658;45.630;8.886;2023-02-08T04:29:53;-2.00;88.00
34406;DHT22;20658;45.630;8.886;2023-02-08T04:32:26;-2.00;88.10
34406;DHT22;20658;45.630;8.886;2023-02-08T04:34:59;-1.50;88.30
34406;DHT22;20658;45.630;8.886;2023-02-08T04:37:33;-2.00;88.40
34406;DHT22;20658;45.630;8.886;2023-02-08T04:40:09;-1.90;88.60
34406;DHT22;20658;45.630;8.886;2023-02-08T04:42:43;-2.10;88.20
34406;DHT22;20658;45.630;8.886;2023-02-08T04:45:16;-1.80;88.50
34406;DHT22;20658;45.630;8.886;2023-02-08T04:47:50;-2.10;88.50
34406;DHT22;20658;45.630;8.886;2023-02-08T04:50:23;-1.70;88.90
34406;DHT22;20658;45.630;8.886;2023-02-08T04:52:57;-2.10;88.50
34406;DHT22;20658;45.630;8.886;2023-02-08T04:55:31;-2.10;88.60
34406;DHT22;20658;45.630;8.886;2023-02-08T04:58:05;-2.20;88.70
34406;DHT22;20658;45.630;8.886;2023-02-08T05:00:38;-2.20;88.90
34406;DHT22;20658;45.630;8.886;2023-02-08T05:03:12;-2.20;89.10
34406;DHT22;20658;45.630;8.886;2023-02-08T05:05:46;-2.20;89.20
34406;DHT22;20658;45.630;8.886;2023-02-08T05:08:19;-2.20;89.20
34406;DHT22;20658;45.630;8.886;2023-02-08T05:10:55;-2.30;89.30
34406;DHT22;20658;45.630;8.886;2023-02-08T05:13:28;-2.20;89.70
34406;DHT22;20658;45.630;8.886;2023-02-08T05:16:01;-1.80;90.00
34406;DHT22;20658;45.630;8.886;2023-02-08T05:18:35;-2.30;89.50
34406;DHT22;20658;45.630;8.886;2023-02-08T05:21:03;-2.30;89.60
34406;DHT22;20658;45.630;8.886;2023-02-08T05:23:37;-2.30;89.90
34406;DHT22;20658;45.630;8.886;2023-02-08T05:26:12;-2.30;89.90
34406;DHT22;20658;45.630;8.886;2023-02-08T05:28:46;-2.40;89.90
34406;DHT22;20658;45.630;8.886;2023-02-08T05:31:22;-2.40;90.00
34406;DHT22;20658;45.630;8.886;2023-02-08T05:33:56;-1.90;90.10
34406;DHT22;20658;45.630;8.886;2023-02-08T05:36:29;-2.50;90.00
34406;DHT22;20658;45.630;8.886;2023-02-08T05:39:03;-2.10;90.20
34406;DHT22;20658;45.630;8.886;2023-02-08T05:41:37;-2.50;90.50
34406;DHT22;20658;45.630;8.886;2023-02-08T05:44:11;-2.50;90.50
34406;DHT22;20658;45.630;8.886;2023-02-08T05:46:44;-2.50;90.50
34406;DHT22;20658;45.630;8.886;2023-02-08T05:49:17;-2.50;90.80
34406;DHT22;20658;45.630;8.886;2023-02-08T05:51:51;-2.50;91.00
34406;DHT22;20658;45.630;8.886;2023-02-08T05:54:24;-2.50;91.00
34406;DHT22;20658;45.630;8.886;2023-02-08T05:56:59;-2.50;91.00
34406;DHT22;20658;45.630;8.886;2023-02-08T05:59:32;-2.50;91.00
34406;DHT22;20658;45.630;8.886;2023-02-08T06:02:06;-2.50;91.00
34406;DHT22;20658;45.630;8.886;2023-02-08T06:04:39;-2.30;91.10
34406;DHT22;20658;45.630;8.886;2023-02-08T06:07:12;-2.50;91.00
34406;DHT22;20658;45.630;8.886;2023-02-08T06:09:46;-2.50;91.00
34406;DHT22;20658;45.630;8.886;2023-02-08T06:12:20;-2.60;90.90
34406;DHT22;20658;45.630;8.886;2023-02-08T06:14:54;-2.60;90.90
34406;DHT22;20658;45.630;8.886;2023-02-08T06:17:27;-2.60;90.90
34406;DHT22;20658;45.630;8.886;2023-02-08T06:20:00;-2.60;91.40
34406;DHT22;20658;45.630;8.886;2023-02-08T06:22:34;-2.60;91.50
34406;DHT22;20658;45.630;8.886;2023-02-08T06:25:08;-2.60;91.40
34406;DHT22;20658;45.630;8.886;2023-02-08T06:27:42;-2.60;91.60
34406;DHT22;20658;45.630;8.886;2023-02-08T06:30:16;-2.70;91.40
34406;DHT22;20658;45.630;8.886;2023-02-08T06:32:50;-2.70;91.50
34406;DHT22;20658;45.630;8.886;2023-02-08T06:35:23;-2.40;91.70
34406;DHT22;20658;45.630;8.886;2023-02-08T06:37:56;-2.40;92.00
34406;DHT22;20658;45.630;8.886;2023-02-08T06:40:30;-2.70;91.90
34406;DHT22;20658;45.630;8.886;2023-02-08T06:43:05;-2.70;92.00
34406;DHT22;20658;45.630;8.886;2023-02-08T06:45:38;-2.40;92.30
34406;DHT22;20658;45.630;8.886;2023-02-08T06:48:13;-2.70;92.10
34406;DHT22;20658;45.630;8.886;2023-02-08T06:50:47;-2.70;92.20
34406;DHT22;20658;45.630;8.886;2023-02-08T06:53:20;-2.60;92.20
34406;DHT22;20658;45.630;8.886;2023-02-08T06:55:53;-2.30;92.40
34406;DHT22;20658;45.630;8.886;2023-02-08T06:58:28;-2.70;92.10
34406;DHT22;20658;45.630;8.886;2023-02-08T07:01:02;-2.60;92.10
34406;DHT22;20658;45.630;8.886;2023-02-08T07:03:35;-2.60;92.00
34406;DHT22;20658;45.630;8.886;2023-02-08T07:06:12;-2.10;92.20
34406;DHT22;20658;45.630;8.886;2023-02-08T07:08:46;-2.50;91.90
34406;DHT22;20658;45.630;8.886;2023-02-08T07:11:20;-2.50;91.60
34406;DHT22;20658;45.630;8.886;2023-02-08T07:13:55;-2.50;91.50
34406;DHT22;20658;45.630;8.886;2023-02-08T07:16:28;-2.40;91.40
34406;DHT22;20658;45.630;8.886;2023-02-08T07:19:01;-2.40;91.10
34406;DHT22;20658;45.630;8.886;2023-02-08T07:21:35;-2.30;91.10
34406;DHT22;20658;45.630;8.886;2023-02-08T07:24:08;-2.30;91.10
34406;DHT22;20658;45.630;8.886;2023-02-08T07:26:42;-2.20;90.80
34406;DHT22;20658;45.630;8.886;2023-02-08T07:29:16;-2.20;90.50
34406;DHT22;20658;45.630;8.886;2023-02-08T07:31:49;-1.90;90.70
34406;DHT22;20658;45.630;8.886;2023-02-08T07:34:23;-2.00;90.30
34406;DHT22;20658;45.630;8.886;2023-02-08T07:36:57;-2.00;90.00
34406;DHT22;20658;45.630;8.886;2023-02-08T07:39:30;-1.90;89.90
34406;DHT22;20658;45.630;8.886;2023-02-08T07:42:04;-1.80;89.10
34406;DHT22;20658;45.630;8.886;2023-02-08T07:44:52;-1.70;88.90
34406;DHT22;20658;45.630;8.886;2023-02-08T07:47:25;-1.60;88.60
34406;DHT22;20658;45.630;8.886;2023-02-08T07:50:01;-1.50;88.50
34406;DHT22;20658;45.630;8.886;2023-02-08T07:52:34;-1.00;88.50
34406;DHT22;20658;45.630;8.886;2023-02-08T07:55:08;-1.20;88.20
34406;DHT22;20658;45.630;8.886;2023-02-08T07:57:42;-1.10;88.00
34406;DHT22;20658;45.630;8.886;2023-02-08T08:00:18;-0.60;87.10
34406;DHT22;20658;45.630;8.886;2023-02-08T08:02:51;-1.00;87.20
34406;DHT22;20658;45.630;8.886;2023-02-08T08:05:25;-0.90;86.50
34406;DHT22;20658;45.630;8.886;2023-02-08T08:07:58;-0.40;85.80
34406;DHT22;20658;45.630;8.886;2023-02-08T08:10:32;-0.70;85.40
34406;DHT22;20658;45.630;8.886;2023-02-08T08:13:05;-0.60;85.20
34406;DHT22;20658;45.630;8.886;2023-02-08T08:15:40;-0.50;84.70
34406;DHT22;20658;45.630;8.886;2023-02-08T08:18:14;0.20;84.00
34406;DHT22;20658;45.630;8.886;2023-02-08T08:20:48;-0.20;83.50
34406;DHT22;20658;45.630;8.886;2023-02-08T08:23:21;0.00;82.70
34406;DHT22;20658;45.630;8.886;2023-02-08T08:25:54;0.20;82.40
34406;DHT22;20658;45.630;8.886;2023-02-08T08:28:28;0.40;81.30
34406;DHT22;20658;45.630;8.886;2023-02-08T08:31:02;0.40;80.40
34406;DHT22;20658;45.630;8.886;2023-02-08T08:33:41;0.50;80.10
34406;DHT22;20658;45.630;8.886;2023-02-08T08:36:15;0.70;79.60
34406;DHT22;20658;45.630;8.886;2023-02-08T08:38:48;0.80;79.20
34406;DHT22;20658;45.630;8.886;2023-02-08T08:41:21;0.90;78.60
34406;DHT22;20658;45.630;8.886;2023-02-08T08:43:57;1.10;78.50
34406;DHT22;20658;45.630;8.886;2023-02-08T08:46:32;1.30;78.40
34406;DHT22;20658;45.630;8.886;2023-02-08T08:49:05;1.50;78.00
34406;DHT22;20658;45.630;8.886;2023-02-08T08:51:39;1.60;78.20
34406;DHT22;20658;45.630;8.886;2023-02-08T08:54:12;1.70;77.20
34406;DHT22;20658;45.630;8.886;2023-02-08T08:56:45;1.90;75.40
34406;DHT22;20658;45.630;8.886;2023-02-08T08:59:19;2.30;73.90
34406;DHT22;20658;45.630;8.886;2023-02-08T09:01:53;2.40;71.30
34406;DHT22;20658;45.630;8.886;2023-02-08T09:04:27;2.60;70.10
34406;DHT22;20658;45.630;8.886;2023-02-08T09:07:00;2.80;68.40
34406;DHT22;20658;45.630;8.886;2023-02-08T09:09:34;3.00;65.10
34406;DHT22;20658;45.630;8.886;2023-02-08T09:12:08;3.20;64.00
34406;DHT22;20658;45.630;8.886;2023-02-08T09:14:41;3.20;62.30
34406;DHT22;20658;45.630;8.886;2023-02-08T09:17:17;3.30;62.20
34406;DHT22;20658;45.630;8.886;2023-02-08T09:19:51;3.40;60.50
34406;DHT22;20658;45.630;8.886;2023-02-08T09:22:19;3.50;57.10
34406;DHT22;20658;45.630;8.886;2023-02-08T09:24:53;3.60;56.00
34406;DHT22;20658;45.630;8.886;2023-02-08T09:27:26;4.00;55.80
34406;DHT22;20658;45.630;8.886;2023-02-08T09:29:59;3.80;53.70
34406;DHT22;20658;45.630;8.886;2023-02-08T09:32:34;3.90;53.40
34406;DHT22;20658;45.630;8.886;2023-02-08T09:35:10;4.00;52.30
34406;DHT22;20658;45.630;8.886;2023-02-08T09:37:44;4.10;51.50
34406;DHT22;20658;45.630;8.886;2023-02-08T09:40:22;4.00;49.40
34406;DHT22;20658;45.630;8.886;2023-02-08T09:43:03;4.10;50.00
34406;DHT22;20658;45.630;8.886;2023-02-08T09:45:44;4.20;49.90
34406;DHT22;20658;45.630;8.886;2023-02-08T09:48:25;4.40;48.90
34406;DHT22;20658;45.630;8.886;2023-02-08T09:51:05;4.60;48.10
34406;DHT22;20658;45.630;8.886;2023-02-08T09:53:47;4.60;47.50
34406;DHT22;20658;45.630;8.886;2023-02-08T09:56:27;4.60;46.50
34406;DHT22;20658;45.630;8.886;2023-02-08T09:59:02;4.70;47.20
34406;DHT22;20658;45.630;8.886;2023-02-08T10:01:37;4.70;47.10
34406;DHT22;20658;45.630;8.886;2023-02-08T10:04:18;4.80;47.00
34406;DHT22;20658;45.630;8.886;2023-02-08T10:06:54;4.80;46.40
34406;DHT22;20658;45.630;8.886;2023-02-08T10:09:28;4.70;45.40
34406;DHT22;20658;45.630;8.886;2023-02-08T10:12:10;4.80;45.50
34406;DHT22;20658;45.630;8.886;2023-02-08T10:14:57;4.80;45.10
34406;DHT22;20658;45.630;8.886;2023-02-08T10:17:40;4.90;45.00
34406;DHT22;20658;45.630;8.886;2023-02-08T10:20:55;4.80;43.40
34406;DHT22;20658;45.630;8.886;2023-02-08T10:24:09;4.70;44.10
34406;DHT22;20658;45.630;8.886;2023-02-08T10:26:56;5.00;43.90
34406;DHT22;20658;45.630;8.886;2023-02-08T10:30:00;5.30;43.60
34406;DHT22;20658;45.630;8.886;2023-02-08T10:32:54;5.50;42.40
34406;DHT22;20658;45.630;8.886;2023-02-08T10:35:34;5.60;42.40
34406;DHT22;20658;45.630;8.886;2023-02-08T10:38:22;5.70;41.40
34406;DHT22;20658;45.630;8.886;2023-02-08T10:40:58;5.90;40.90
34406;DHT22;20658;45.630;8.886;2023-02-08T10:43:36;5.70;41.20
34406;DHT22;20658;45.630;8.886;2023-02-08T10:46:19;5.90;40.80
34406;DHT22;20658;45.630;8.886;2023-02-08T10:49:04;5.90;40.20
34406;DHT22;20658;45.630;8.886;2023-02-08T10:51:40;5.90;40.70
34406;DHT22;20658;45.630;8.886;2023-02-08T10:54:15;6.20;40.50
34406;DHT22;20658;45.630;8.886;2023-02-08T10:56:52;6.30;39.90
34406;DHT22;20658;45.630;8.886;2023-02-08T10:59:30;6.30;39.20
34406;DHT22;20658;45.630;8.886;2023-02-08T11:02:19;6.40;39.30
34406;DHT22;20658;45.630;8.886;2023-02-08T11:04:58;6.30;38.70
34406;DHT22;20658;45.630;8.886;2023-02-08T11:07:33;6.00;38.30
34406;DHT22;20658;45.630;8.886;2023-02-08T11:10:21;5.80;38.60
34406;DHT22;20658;45.630;8.886;2023-02-08T11:12:58;6.10;39.10
34406;DHT22;20658;45.630;8.886;2023-02-08T11:15:37;6.10;37.90
34406;DHT22;20658;45.630;8.886;2023-02-08T11:18:21;6.20;37.30
34406;DHT22;20658;45.630;8.886;2023-02-08T11:20:58;6.30;37.70
34406;DHT22;20658;45.630;8.886;2023-02-08T11:23:35;6.30;36.60
34406;DHT22;20658;45.630;8.886;2023-02-08T11:26:20;6.40;36.90
34406;DHT22;20658;45.630;8.886;2023-02-08T11:29:00;6.60;36.90
34406;DHT22;20658;45.630;8.886;2023-02-08T11:31:34;6.70;37.10
34406;DHT22;20658;45.630;8.886;2023-02-08T11:34:09;6.50;36.70
34406;DHT22;20658;45.630;8.886;2023-02-08T11:36:45;6.50;36.90
34406;DHT22;20658;45.630;8.886;2023-02-08T11:39:22;6.80;36.90
34406;DHT22;20658;45.630;8.886;2023-02-08T11:41:59;6.80;36.30
34406;DHT22;20658;45.630;8.886;2023-02-08T11:44:35;6.40;35.80
34406;DHT22;20658;45.630;8.886;2023-02-08T11:47:14;6.40;36.10
34406;DHT22;20658;45.630;8.886;2023-02-08T11:49:52;6.60;35.90
34406;DHT22;20658;45.630;8.886;2023-02-08T11:52:28;6.60;35.90
34406;DHT22;20658;45.630;8.886;2023-02-08T11:55:22;6.70;35.90
34406;DHT22;20658;45.630;8.886;2023-02-08T11:58:00;6.90;35.20
34406;DHT22;20658;45.630;8.886;2023-02-08T12:00:36;7.10;35.60
34406;DHT22;20658;45.630;8.886;2023-02-08T12:03:13;7.10;34.90
34406;DHT22;20658;45.630;8.886;2023-02-08T12:05:54;7.00;34.70
34406;DHT22;20658;45.630;8.886;2023-02-08T12:08:41;6.90;34.80
34406;DHT22;20658;45.630;8.886;2023-02-08T12:11:21;6.80;34.40
34406;DHT22;20658;45.630;8.886;2023-02-08T12:14:11;6.80;34.40
34406;DHT22;20658;45.630;8.886;2023-02-08T12:17:13;6.70;34.20
34406;DHT22;20658;45.630;8.886;2023-02-08T12:20:17;6.80;34.80
34406;DHT22;20658;45.630;8.886;2023-02-08T12:23:19;7.10;34.40
34406;DHT22;20658;45.630;8.886;2023-02-08T12:26:22;6.90;33.50
34406;DHT22;20658;45.630;8.886;2023-02-08T12:29:27;6.80;33.80
34406;DHT22;20658;45.630;8.886;2023-02-08T12:32:29;6.80;34.30
34406;DHT22;20658;45.630;8.886;2023-02-08T12:35:25;6.80;33.90
34406;DHT22;20658;45.630;8.886;2023-02-08T12:38:30;6.90;34.00
34406;DHT22;20658;45.630;8.886;2023-02-08T12:41:30;7.10;33.60
34406;DHT22;20658;45.630;8.886;2023-02-08T12:44:14;7.00;33.60
34406;DHT22;20658;45.630;8.886;2023-02-08T12:47:00;7.10;33.00
34406;DHT22;20658;45.630;8.886;2023-02-08T12:49:49;7.00;33.20
34406;DHT22;20658;45.630;8.886;2023-02-08T12:52:32;7.20;33.70
34406;DHT22;20658;45.630;8.886;2023-02-08T12:55:15;7.30;33.70
34406;DHT22;20658;45.630;8.886;2023-02-08T12:57:53;7.50;34.30
34406;DHT22;20658;45.630;8.886;2023-02-08T13:00:33;7.30;33.60
34406;DHT22;20658;45.630;8.886;2023-02-08T13:03:13;7.30;33.80
34406;DHT22;20658;45.630;8.886;2023-02-08T13:05:55;7.50;34.00
34406;DHT22;20658;45.630;8.886;2023-02-08T13:08:30;7.00;32.90
34406;DHT22;20658;45.630;8.886;2023-02-08T13:11:12;6.90;33.40
34406;DHT22;20658;45.630;8.886;2023-02-08T13:13:54;6.80;33.00
34406;DHT22;20658;45.630;8.886;2023-02-08T13:16:33;7.00;33.80
34406;DHT22;20658;45.630;8.886;2023-02-08T13:19:24;7.20;33.80
34406;DHT22;20658;45.630;8.886;2023-02-08T13:21:59;7.30;34.10
34406;DHT22;20658;45.630;8.886;2023-02-08T13:24:35;7.40;33.80
34406;DHT22;20658;45.630;8.886;2023-02-08T13:27:14;7.30;33.80
34406;DHT22;20658;45.630;8.886;2023-02-08T13:29:50;7.40;33.40
34406;DHT22;20658;45.630;8.886;2023-02-08T13:32:27;7.30;34.00
34406;DHT22;20658;45.630;8.886;2023-02-08T13:35:10;7.20;33.80
34406;DHT22;20658;45.630;8.886;2023-02-08T13:37:50;7.10;34.20
34406;DHT22;20658;45.630;8.886;2023-02-08T13:40:25;7.20;34.60
34406;DHT22;20658;45.630;8.886;2023-02-08T13:43:02;7.10;34.40
34406;DHT22;20658;45.630;8.886;2023-02-08T13:45:40;7.20;34.20
34406;DHT22;20658;45.630;8.886;2023-02-08T13:48:17;7.10;33.90
34406;DHT22;20658;45.630;8.886;2023-02-08T13:50:51;7.10;34.10
34406;DHT22;20658;45.630;8.886;2023-02-08T13:56:43;7.00;34.40
34406;DHT22;20658;45.630;8.886;2023-02-08T13:59:31;7.10;34.70
34406;DHT22;20658;45.630;8.886;2023-02-08T14:02:26;7.20;34.70
34406;DHT22;20658;45.630;8.886;2023-02-08T14:05:39;7.20;34.80
34406;DHT22;20658;45.630;8.886;2023-02-08T14:08:20;7.10;34.50
34406;DHT22;20658;45.630;8.886;2023-02-08T14:11:04;7.10;34.60
34406;DHT22;20658;45.630;8.886;2023-02-08T14:13:46;7.10;34.60
34406;DHT22;20658;45.630;8.886;2023-02-08T14:16:27;7.10;34.60
34406;DHT22;20658;45.630;8.886;2023-02-08T14:19:04;7.00;34.60
34406;DHT22;20658;45.630;8.886;2023-02-08T14:22:00;6.90;34.40
34406;DHT22;20658;45.630;8.886;2023-02-08T14:24:37;7.00;34.90
34406;DHT22;20658;45.630;8.886;2023-02-08T14:27:20;7.00;34.80
34406;DHT22;20658;45.630;8.886;2023-02-08T14:30:00;6.90;34.80
34406;DHT22;20658;45.630;8.886;2023-02-08T14:32:30;7.00;35.20
34406;DHT22;20658;45.630;8.886;2023-02-08T14:35:08;6.90;34.30
34406;DHT22;20658;45.630;8.886;2023-02-08T14:41:47;6.80;34.90
34406;DHT22;20658;45.630;8.886;2023-02-08T14:44:54;6.50;35.60
34406;DHT22;20658;45.630;8.886;2023-02-08T14:48:18;6.50;35.70
34406;DHT22;20658;45.630;8.886;2023-02-08T14:51:12;6.40;36.10
34406;DHT22;20658;45.630;8.886;2023-02-08T14:53:53;6.50;36.40
34406;DHT22;20658;45.630;8.886;2023-02-08T14:56:34;6.60;36.70
34406;DHT22;20658;45.630;8.886;2023-02-08T14:59:14;6.60;36.70
34406;DHT22;20658;45.630;8.886;2023-02-08T15:01:50;6.40;37.00
34406;DHT22;20658;45.630;8.886;2023-02-08T15:04:26;6.40;37.40
34406;DHT22;20658;45.630;8.886;2023-02-08T15:07:13;6.20;37.50
34406;DHT22;20658;45.630;8.886;2023-02-08T15:09:53;6.20;37.80
34406;DHT22;20658;45.630;8.886;2023-02-08T15:12:29;6.20;38.20
34406;DHT22;20658;45.630;8.886;2023-02-08T15:15:06;6.10;38.40
34406;DHT22;20658;45.630;8.886;2023-02-08T15:17:55;6.10;39.00
34406;DHT22;20658;45.630;8.886;2023-02-08T15:20:31;6.10;39.10
34406;DHT22;20658;45.630;8.886;2023-02-08T15:23:17;6.00;39.00
34406;DHT22;20658;45.630;8.886;2023-02-08T15:25:58;6.00;39.20
34406;DHT22;20658;45.630;8.886;2023-02-08T15:28:34;5.90;39.00
34406;DHT22;20658;45.630;8.886;2023-02-08T15:31:13;5.90;39.80
34406;DHT22;20658;45.630;8.886;2023-02-08T15:33:43;5.80;39.90
34406;DHT22;20658;45.630;8.886;2023-02-08T15:36:21;5.70;39.80
34406;DHT22;20658;45.630;8.886;2023-02-08T15:39:01;5.70;40.20
34406;DHT22;20658;45.630;8.886;2023-02-08T15:41:37;5.60;40.50
34406;DHT22;20658;45.630;8.886;2023-02-08T15:44:17;5.50;41.00
34406;DHT22;20658;45.630;8.886;2023-02-08T15:46:53;5.40;41.60
34406;DHT22;20658;45.630;8.886;2023-02-08T15:49:30;5.30;42.10
34406;DHT22;20658;45.630;8.886;2023-02-08T15:52:05;5.30;42.60
34406;DHT22;20658;45.630;8.886;2023-02-08T15:54:39;5.20;43.00
34406;DHT22;20658;45.630;8.886;2023-02-08T15:57:25;5.10;43.20
34406;DHT22;20658;45.630;8.886;2023-02-08T16:00:11;5.00;43.50
34406;DHT22;20658;45.630;8.886;2023-02-08T16:02:49;5.00;43.90
34406;DHT22;20658;45.630;8.886;2023-02-08T16:05:25;4.90;44.10
34406;DHT22;20658;45.630;8.886;2023-02-08T16:08:01;4.90;44.40
34406;DHT22;20658;45.630;8.886;2023-02-08T16:10:40;4.80;44.10
34406;DHT22;20658;45.630;8.886;2023-02-08T16:13:21;4.70;44.50
34406;DHT22;20658;45.630;8.886;2023-02-08T16:15:57;4.60;44.70
34406;DHT22;20658;45.630;8.886;2023-02-08T16:18:48;4.50;44.90
34406;DHT22;20658;45.630;8.886;2023-02-08T16:21:30;4.40;44.90
34406;DHT22;20658;45.630;8.886;2023-02-08T16:24:19;4.40;45.20
34406;DHT22;20658;45.630;8.886;2023-02-08T16:26:57;4.20;45.50
34406;DHT22;20658;45.630;8.886;2023-02-08T16:29:36;4.20;45.70
34406;DHT22;20658;45.630;8.886;2023-02-08T16:32:19;4.10;45.90
34406;DHT22;20658;45.630;8.886;2023-02-08T16:34:58;4.00;46.00
34406;DHT22;20658;45.630;8.886;2023-02-08T16:37:34;3.90;46.20
34406;DHT22;20658;45.630;8.886;2023-02-08T16:43:25;3.80;46.60
34406;DHT22;20658;45.630;8.886;2023-02-08T16:46:20;3.70;46.50
34406;DHT22;20658;45.630;8.886;2023-02-08T16:48:56;3.60;46.40
34406;DHT22;20658;45.630;8.886;2023-02-08T16:51:30;3.50;46.20
34406;DHT22;20658;45.630;8.886;2023-02-08T16:54:06;3.50;46.40
34406;DHT22;20658;45.630;8.886;2023-02-08T16:56:42;3.40;46.60
34406;DHT22;20658;45.630;8.886;2023-02-08T16:59:17;3.40;46.40
34406;DHT22;20658;45.630;8.886;2023-02-08T17:01:52;3.50;46.60